sensor_id;sensor_type;location;lat;lon;timestamp;pressure;altitude;pressure_sealevel;temperature;humidity
50384;BME280;36301;48.310;12.786;2024-01-16T00:02:07;95383.72;;;-0.91;85.62
50384;BME280;36301;48.310;12.786;2024-01-16T00:04:37;95380.97;;;-0.94;85.23
50384;BME280;36301;48.310;12.786;2024-01-16T00:07:04;95390.75;;;-1.00;85.29
50384;BME280;36301;48.310;12.786;2024-01-16T00:09:34;95395.94;;;-1.09;86.40
50384;BME280;36301;48.310;12.786;2024-01-16T00:12:02;95393.97;;;-0.94;84.86
50384;BME280;36301;48.310;12.786;2024-01-16T00:14:30;95394.25;;;-0.87;83.78
50384;BME280;36301;48.310;12.786;2024-01-16T00:16:57;95393.19;;;-0.77;83.91
50384;BME280;36301;48.310;12.786;2024-01-16T00:19:23;95395.34;;;-0.80;82.60
50384;BME280;36301;48.310;12.786;2024-01-16T00:21:50;95388.94;;;-0.91;82.44
50384;BME280;36301;48.310;12.786;2024-01-16T00:24:17;95394.13;;;-0.91;82.42
50384;BME280;36301;48.310;12.786;2024-01-16T00:26:44;95400.38;;;-0.74;83.10
50384;BME280;36301;48.310;12.786;2024-01-16T00:29:11;95395.66;;;-0.90;83.45
50384;BME280;36301;48.310;12.786;2024-01-16T00:31:39;95402.38;;;-0.80;82.36
50384;BME280;36301;48.310;12.786;2024-01-16T00:34:06;95403.31;;;-0.76;82.48
50384;BME280;36301;48.310;12.786;2024-01-16T00:36:32;95384.50;;;-0.90;83.04
50384;BME280;36301;48.310;12.786;2024-01-16T00:38:59;95408.78;;;-0.95;82.72
50384;BME280;36301;48.310;12.786;2024-01-16T00:41:25;95389.22;;;-1.10;84.51
50384;BME280;36301;48.310;12.786;2024-01-16T00:43:53;95411.41;;;-0.86;82.55
50384;BME280;36301;48.310;12.786;2024-01-16T00:46:20;95415.34;;;-0.71;81.60
50384;BME280;36301;48.310;12.786;2024-01-16T00:48:47;95416.59;;;-0.60;81.26
50384;BME280;36301;48.310;12.786;2024-01-16T00:51:14;95425.75;;;-0.54;81.32
50384;BME280;36301;48.310;12.786;2024-01-16T00:53:41;95426.34;;;-0.57;80.71
50384;BME280;36301;48.310;12.786;2024-01-16T00:56:08;95428.66;;;-0.73;81.28
50384;BME280;36301;48.310;12.786;2024-01-16T00:58:35;95430.06;;;-0.75;81.53
50384;BME280;36301;48.310;12.786;2024-01-16T01:01:01;95436.28;;;-0.76;81.09
50384;BME280;36301;48.310;12.786;2024-01-16T01:03:28;95431.25;;;-0.73;81.26
50384;BME280;36301;48.310;12.786;2024-01-16T01:05:55;95417.06;;;-0.75;81.26
50384;BME280;36301;48.310;12.786;2024-01-16T01:08:23;95439.69;;;-0.50;79.71
50384;BME280;36301;48.310;12.786;2024-01-16T01:10:50;95448.22;;;-0.41;79.02
50384;BME280;36301;48.310;12.786;2024-01-16T01:13:16;95454.19;;;-0.66;79.83
50384;BME280;36301;48.310;12.786;2024-01-16T01:15:43;95461.53;;;-0.42;78.38
50384;BME280;36301;48.310;12.786;2024-01-16T01:18:09;95443.34;;;-0.86;79.37
50384;BME280;36301;48.310;12.786;2024-01-16T01:20:36;95452.06;;;-0.56;78.75
50384;BME280;36301;48.310;12.786;2024-01-16T01:23:03;95468.44;;;-0.55;79.38
50384;BME280;36301;48.310;12.786;2024-01-16T01:25:29;95455.13;;;-0.71;79.78
50384;BME280;36301;48.310;12.786;2024-01-16T01:27:56;95465.22;;;-0.61;80.16
50384;BME280;36301;48.310;12.786;2024-01-16T01:30:22;95456.63;;;-0.61;79.31
50384;BME280;36301;48.310;12.786;2024-01-16T01:32:49;95474.22;;;-0.58;79.18
50384;BME280;36301;48.310;12.786;2024-01-16T01:35:17;95480.03;;;-0.44;78.00
50384;BME280;36301;48.310;12.786;2024-01-16T01:37:44;95476.84;;;-0.58;78.39
50384;BME280;36301;48.310;12.786;2024-01-16T01:40:11;95486.16;;;-0.57;78.08
50384;BME280;36301;48.310;12.786;2024-01-16T01:42:40;95477.00;;;-0.55;77.32
50384;BME280;36301;48.310;12.786;2024-01-16T01:45:11;95491.50;;;-0.54;77.87
50384;BME280;36301;48.310;12.786;2024-01-16T01:47:39;95498.56;;;-0.45;76.96
50384;BME280;36301;48.310;12.786;2024-01-16T01:50:08;95497.47;;;-0.36;77.15
50384;BME280;36301;48.310;12.786;2024-01-16T01:52:39;95505.41;;;-0.41;77.85
50384;BME280;36301;48.310;12.786;2024-01-16T01:55:10;95506.81;;;-0.52;76.33
50384;BME280;36301;48.310;12.786;2024-01-16T01:57:38;95503.75;;;-0.45;77.67
50384;BME280;36301;48.310;12.786;2024-01-16T02:00:06;95502.69;;;-0.53;77.35
50384;BME280;36301;48.310;12.786;2024-01-16T02:02:33;95510.63;;;-0.49;78.21
50384;BME280;36301;48.310;12.786;2024-01-16T02:05:00;95479.75;;;-0.60;77.51
50384;BME280;36301;48.310;12.786;2024-01-16T02:07:28;95501.63;;;-0.61;77.82
50384;BME280;36301;48.310;12.786;2024-01-16T02:09:55;95507.56;;;-0.69;78.70
50384;BME280;36301;48.310;12.786;2024-01-16T02:12:21;95511.22;;;-0.61;78.25
50384;BME280;36301;48.310;12.786;2024-01-16T02:14:51;95519.94;;;-0.57;79.01
50384;BME280;36301;48.310;12.786;2024-01-16T02:17:17;95511.56;;;-0.54;78.08
50384;BME280;36301;48.310;12.786;2024-01-16T02:19:44;95518.44;;;-0.58;78.26
50384;BME280;36301;48.310;12.786;2024-01-16T02:22:16;95513.25;;;-0.49;78.64
50384;BME280;36301;48.310;12.786;2024-01-16T02:24:46;95511.09;;;-0.65;77.61
50384;BME280;36301;48.310;12.786;2024-01-16T02:27:12;95510.94;;;-0.60;76.74
50384;BME280;36301;48.310;12.786;2024-01-16T02:29:42;95515.06;;;-0.59;77.31
50384;BME280;36301;48.310;12.786;2024-01-16T02:32:13;95521.47;;;-0.65;78.01
50384;BME280;36301;48.310;12.786;2024-01-16T02:34:40;95525.47;;;-0.59;76.38
50384;BME280;36301;48.310;12.786;2024-01-16T02:37:07;95520.44;;;-0.55;77.09
50384;BME280;36301;48.310;12.786;2024-01-16T02:39:33;95525.91;;;-0.57;76.52
50384;BME280;36301;48.310;12.786;2024-01-16T02:42:00;95534.34;;;-0.42;75.88
50384;BME280;36301;48.310;12.786;2024-01-16T02:44:27;95533.28;;;-0.50;75.68
50384;BME280;36301;48.310;12.786;2024-01-16T02:46:53;95539.66;;;-0.56;74.45
50384;BME280;36301;48.310;12.786;2024-01-16T02:49:20;95542.91;;;-0.42;74.69
50384;BME280;36301;48.310;12.786;2024-01-16T02:51:46;95529.91;;;-0.42;75.40
50384;BME280;36301;48.310;12.786;2024-01-16T02:54:13;95538.59;;;-0.64;75.36
50384;BME280;36301;48.310;12.786;2024-01-16T02:56:40;95534.78;;;-0.75;75.56
50384;BME280;36301;48.310;12.786;2024-01-16T02:59:07;95524.38;;;-0.75;75.05
50384;BME280;36301;48.310;12.786;2024-01-16T03:01:34;95526.47;;;-0.94;75.25
50384;BME280;36301;48.310;12.786;2024-01-16T03:04:00;95522.50;;;-0.83;73.94
50384;BME280;36301;48.310;12.786;2024-01-16T03:06:27;95535.06;;;-0.76;73.47
50384;BME280;36301;48.310;12.786;2024-01-16T03:08:56;95527.09;;;-0.89;74.57
50384;BME280;36301;48.310;12.786;2024-01-16T03:11:23;95535.66;;;-0.88;74.54
50384;BME280;36301;48.310;12.786;2024-01-16T03:13:49;95529.66;;;-0.97;74.00
50384;BME280;36301;48.310;12.786;2024-01-16T03:16:18;95530.41;;;-0.97;74.49
50384;BME280;36301;48.310;12.786;2024-01-16T03:18:45;95537.13;;;-1.05;73.93
50384;BME280;36301;48.310;12.786;2024-01-16T03:21:13;95530.56;;;-1.11;75.01
50384;BME280;36301;48.310;12.786;2024-01-16T03:23:39;95531.72;;;-1.17;74.82
50384;BME280;36301;48.310;12.786;2024-01-16T03:26:06;95538.22;;;-0.97;74.05
50384;BME280;36301;48.310;12.786;2024-01-16T03:28:32;95539.38;;;-1.20;75.52
50384;BME280;36301;48.310;12.786;2024-01-16T03:30:59;95532.22;;;-1.15;75.61
50384;BME280;36301;48.310;12.786;2024-01-16T03:33:26;95548.38;;;-1.18;75.12
50384;BME280;36301;48.310;12.786;2024-01-16T03:35:52;95542.25;;;-1.31;76.25
50384;BME280;36301;48.310;12.786;2024-01-16T03:38:19;95531.94;;;-1.44;76.46
50384;BME280;36301;48.310;12.786;2024-01-16T03:40:45;95541.72;;;-1.10;75.06
50384;BME280;36301;48.310;12.786;2024-01-16T03:43:12;95550.28;;;-1.41;77.07
50384;BME280;36301;48.310;12.786;2024-01-16T03:45:39;95561.50;;;-1.32;76.97
50384;BME280;36301;48.310;12.786;2024-01-16T03:48:05;95562.03;;;-1.43;77.03
50384;BME280;36301;48.310;12.786;2024-01-16T03:50:32;95566.97;;;-1.33;77.03
50384;BME280;36301;48.310;12.786;2024-01-16T03:53:00;95570.44;;;-1.38;76.52
50384;BME280;36301;48.310;12.786;2024-01-16T03:55:26;95574.41;;;-1.40;76.88
50384;BME280;36301;48.310;12.786;2024-01-16T03:57:53;95578.97;;;-1.46;76.89
50384;BME280;36301;48.310;12.786;2024-01-16T04:00:19;95573.16;;;-1.43;76.82
50384;BME280;36301;48.310;12.786;2024-01-16T04:02:46;95579.00;;;-1.37;76.67
50384;BME280;36301;48.310;12.786;2024-01-16T04:05:13;95584.56;;;-1.30;76.32
50384;BME280;36301;48.310;12.786;2024-01-16T04:07:39;95586.91;;;-1.42;77.01
50384;BME280;36301;48.310;12.786;2024-01-16T04:10:06;95586.06;;;-1.29;76.99
50384;BME280;36301;48.310;12.786;2024-01-16T04:12:33;95578.84;;;-1.41;76.74
50384;BME280;36301;48.310;12.786;2024-01-16T04:14:59;95575.38;;;-1.36;76.73
50384;BME280;36301;48.310;12.786;2024-01-16T04:17:26;95586.63;;;-1.41;77.14
50384;BME280;36301;48.310;12.786;2024-01-16T04:19:53;95582.72;;;-1.29;77.35
50384;BME280;36301;48.310;12.786;2024-01-16T04:22:19;95587.47;;;-1.32;77.01
50384;BME280;36301;48.310;12.786;2024-01-16T04:24:46;95585.50;;;-1.26;76.41
50384;BME280;36301;48.310;12.786;2024-01-16T04:27:13;95591.97;;;-1.46;77.17
50384;BME280;36301;48.310;12.786;2024-01-16T04:29:39;95592.84;;;-1.50;77.92
50384;BME280;36301;48.310;12.786;2024-01-16T04:32:06;95585.06;;;-1.50;77.59
50384;BME280;36301;48.310;12.786;2024-01-16T04:34:33;95588.59;;;-1.69;79.13
50384;BME280;36301;48.310;12.786;2024-01-16T04:37:00;95585.50;;;-1.57;78.41
50384;BME280;36301;48.310;12.786;2024-01-16T04:39:27;95584.72;;;-1.80;79.55
50384;BME280;36301;48.310;12.786;2024-01-16T04:41:54;95587.41;;;-1.63;79.18
50384;BME280;36301;48.310;12.786;2024-01-16T04:44:20;95592.38;;;-1.75;79.93
50384;BME280;36301;48.310;12.786;2024-01-16T04:46:47;95594.69;;;-1.73;80.35
50384;BME280;36301;48.310;12.786;2024-01-16T04:49:13;95595.28;;;-1.76;81.23
50384;BME280;36301;48.310;12.786;2024-01-16T04:51:40;95595.75;;;-1.74;81.31
50384;BME280;36301;48.310;12.786;2024-01-16T04:54:07;95602.41;;;-1.82;82.29
50384;BME280;36301;48.310;12.786;2024-01-16T04:56:33;95600.47;;;-1.76;82.33
50384;BME280;36301;48.310;12.786;2024-01-16T04:59:00;95603.47;;;-1.83;81.81
50384;BME280;36301;48.310;12.786;2024-01-16T05:01:27;95600.41;;;-1.85;82.67
50384;BME280;36301;48.310;12.786;2024-01-16T05:03:53;95601.81;;;-1.79;82.03
50384;BME280;36301;48.310;12.786;2024-01-16T05:06:21;95602.34;;;-1.91;82.88
50384;BME280;36301;48.310;12.786;2024-01-16T05:08:48;95598.16;;;-2.00;82.58
50384;BME280;36301;48.310;12.786;2024-01-16T05:11:15;95603.22;;;-1.95;83.12
50384;BME280;36301;48.310;12.786;2024-01-16T05:13:41;95601.28;;;-2.12;83.50
50384;BME280;36301;48.310;12.786;2024-01-16T05:16:09;95607.47;;;-2.36;84.92
50384;BME280;36301;48.310;12.786;2024-01-16T05:18:35;95603.69;;;-2.16;85.13
50384;BME280;36301;48.310;12.786;2024-01-16T05:21:04;95608.19;;;-2.07;83.63
50384;BME280;36301;48.310;12.786;2024-01-16T05:23:31;95599.22;;;-2.01;82.92
50384;BME280;36301;48.310;12.786;2024-01-16T05:25:57;95605.19;;;-2.15;84.08
50384;BME280;36301;48.310;12.786;2024-01-16T05:28:24;95600.66;;;-2.09;83.31
50384;BME280;36301;48.310;12.786;2024-01-16T05:30:51;95600.31;;;-2.16;82.96
50384;BME280;36301;48.310;12.786;2024-01-16T05:33:17;95597.94;;;-2.26;84.34
50384;BME280;36301;48.310;12.786;2024-01-16T05:35:44;95597.53;;;-2.20;84.18
50384;BME280;36301;48.310;12.786;2024-01-16T05:38:10;95596.13;;;-2.26;84.15
50384;BME280;36301;48.310;12.786;2024-01-16T05:40:38;95598.53;;;-2.29;84.07
50384;BME280;36301;48.310;12.786;2024-01-16T05:43:06;95599.69;;;-2.49;85.41
50384;BME280;36301;48.310;12.786;2024-01-16T05:45:32;95606.72;;;-2.50;85.24
50384;BME280;36301;48.310;12.786;2024-01-16T05:47:59;95607.38;;;-2.44;85.01
50384;BME280;36301;48.310;12.786;2024-01-16T05:50:26;95607.47;;;-2.36;84.31
50384;BME280;36301;48.310;12.786;2024-01-16T05:52:53;95608.84;;;-2.52;84.94
50384;BME280;36301;48.310;12.786;2024-01-16T05:55:19;95615.16;;;-2.44;84.35
50384;BME280;36301;48.310;12.786;2024-01-16T05:57:47;95612.09;;;-2.46;84.44
50384;BME280;36301;48.310;12.786;2024-01-16T06:00:14;95619.41;;;-2.48;85.01
50384;BME280;36301;48.310;12.786;2024-01-16T06:02:41;95617.69;;;-2.53;84.07
50384;BME280;36301;48.310;12.786;2024-01-16T06:05:07;95626.28;;;-2.44;83.77
50384;BME280;36301;48.310;12.786;2024-01-16T06:07:34;95616.91;;;-2.53;84.00
50384;BME280;36301;48.310;12.786;2024-01-16T06:10:00;95625.16;;;-2.51;82.96
50384;BME280;36301;48.310;12.786;2024-01-16T06:12:28;95622.75;;;-2.62;82.75
50384;BME280;36301;48.310;12.786;2024-01-16T06:14:55;95623.53;;;-2.61;83.79
50384;BME280;36301;48.310;12.786;2024-01-16T06:17:22;95620.38;;;-2.72;83.78
50384;BME280;36301;48.310;12.786;2024-01-16T06:19:48;95619.22;;;-2.79;84.22
50384;BME280;36301;48.310;12.786;2024-01-16T06:22:15;95621.63;;;-2.83;83.85
50384;BME280;36301;48.310;12.786;2024-01-16T06:24:41;95626.31;;;-2.71;83.36
50384;BME280;36301;48.310;12.786;2024-01-16T06:27:08;95622.41;;;-2.82;83.74
50384;BME280;36301;48.310;12.786;2024-01-16T06:29:34;95628.03;;;-2.94;84.40
50384;BME280;36301;48.310;12.786;2024-01-16T06:32:01;95627.84;;;-2.98;84.19
50384;BME280;36301;48.310;12.786;2024-01-16T06:34:28;95626.13;;;-3.02;85.05
50384;BME280;36301;48.310;12.786;2024-01-16T06:36:55;95627.53;;;-3.24;85.56
50384;BME280;36301;48.310;12.786;2024-01-16T06:39:22;95624.75;;;-3.27;85.34
50384;BME280;36301;48.310;12.786;2024-01-16T06:41:48;95631.66;;;-3.23;85.82
50384;BME280;36301;48.310;12.786;2024-01-16T06:44:15;95631.53;;;-3.31;86.16
50384;BME280;36301;48.310;12.786;2024-01-16T06:46:41;95634.06;;;-3.13;85.31
50384;BME280;36301;48.310;12.786;2024-01-16T06:49:08;95642.81;;;-3.08;84.55
50384;BME280;36301;48.310;12.786;2024-01-16T06:51:34;95647.59;;;-3.02;84.80
50384;BME280;36301;48.310;12.786;2024-01-16T06:54:01;95648.53;;;-3.11;85.23
50384;BME280;36301;48.310;12.786;2024-01-16T06:56:28;95648.16;;;-3.19;85.38
50384;BME280;36301;48.310;12.786;2024-01-16T06:58:54;95652.06;;;-3.21;85.31
50384;BME280;36301;48.310;12.786;2024-01-16T07:01:21;95648.16;;;-3.19;85.78
50384;BME280;36301;48.310;12.786;2024-01-16T07:03:48;95652.91;;;-3.26;85.48
50384;BME280;36301;48.310;12.786;2024-01-16T07:06:15;95652.56;;;-3.05;84.53
50384;BME280;36301;48.310;12.786;2024-01-16T07:08:42;95644.91;;;-3.10;84.48
50384;BME280;36301;48.310;12.786;2024-01-16T07:11:08;95655.84;;;-3.00;84.14
50384;BME280;36301;48.310;12.786;2024-01-16T07:13:40;95645.09;;;-3.07;84.12
50384;BME280;36301;48.310;12.786;2024-01-16T07:16:10;95637.03;;;-3.05;84.15
50384;BME280;36301;48.310;12.786;2024-01-16T07:18:40;95647.31;;;-2.59;82.77
50384;BME280;36301;48.310;12.786;2024-01-16T07:21:20;95640.38;;;-2.22;80.11
50384;BME280;36301;48.310;12.786;2024-01-16T07:23:47;95633.38;;;-1.63;77.31
50384;BME280;36301;48.310;12.786;2024-01-16T07:26:14;95639.50;;;-1.37;73.44
50384;BME280;36301;48.310;12.786;2024-01-16T07:28:42;95645.44;;;-1.14;73.44
50384;BME280;36301;48.310;12.786;2024-01-16T07:31:10;95649.53;;;-1.21;72.08
50384;BME280;36301;48.310;12.786;2024-01-16T07:33:37;95648.94;;;-1.63;74.26
50384;BME280;36301;48.310;12.786;2024-01-16T07:36:06;95649.06;;;-1.68;75.48
50384;BME280;36301;48.310;12.786;2024-01-16T07:38:32;95648.63;;;-1.84;76.81
50384;BME280;36301;48.310;12.786;2024-01-16T07:40:59;95655.00;;;-1.90;76.94
50384;BME280;36301;48.310;12.786;2024-01-16T07:43:26;95651.09;;;-2.01;76.70
50384;BME280;36301;48.310;12.786;2024-01-16T07:45:52;95648.22;;;-1.77;75.77
50384;BME280;36301;48.310;12.786;2024-01-16T07:48:18;95645.34;;;-1.76;76.50
50384;BME280;36301;48.310;12.786;2024-01-16T07:50:45;95652.38;;;-1.76;75.60
50384;BME280;36301;48.310;12.786;2024-01-16T07:53:12;95650.13;;;-1.69;75.86
50384;BME280;36301;48.310;12.786;2024-01-16T07:55:38;95657.09;;;-1.56;74.85
50384;BME280;36301;48.310;12.786;2024-01-16T07:58:05;95649.94;;;-1.28;74.34
50384;BME280;36301;48.310;12.786;2024-01-16T08:00:32;95642.69;;;-1.40;74.35
50384;BME280;36301;48.310;12.786;2024-01-16T08:02:59;95644.72;;;-1.28;73.50
50384;BME280;36301;48.310;12.786;2024-01-16T08:05:25;95643.50;;;-1.31;73.64
50384;BME280;36301;48.310;12.786;2024-01-16T08:07:54;95641.94;;;-1.09;72.71
50384;BME280;36301;48.310;12.786;2024-01-16T08:10:20;95638.22;;;-1.17;72.66
50384;BME280;36301;48.310;12.786;2024-01-16T08:12:47;95641.31;;;-1.15;71.88
50384;BME280;36301;48.310;12.786;2024-01-16T08:15:14;95636.78;;;-1.00;72.53
50384;BME280;36301;48.310;12.786;2024-01-16T08:17:41;95643.00;;;-0.79;72.11
50384;BME280;36301;48.310;12.786;2024-01-16T08:20:08;95628.72;;;-0.50;70.37
50384;BME280;36301;48.310;12.786;2024-01-16T08:22:38;95635.03;;;-0.34;68.92
50384;BME280;36301;48.310;12.786;2024-01-16T08:25:04;95629.81;;;-0.26;68.60
50384;BME280;36301;48.310;12.786;2024-01-16T08:27:31;95638.72;;;-0.01;68.12
50384;BME280;36301;48.310;12.786;2024-01-16T08:29:59;95640.13;;;0.23;65.26
50384;BME280;36301;48.310;12.786;2024-01-16T08:32:26;95647.03;;;0.36;64.02
50384;BME280;36301;48.310;12.786;2024-01-16T08:34:53;95650.22;;;0.24;64.59
50384;BME280;36301;48.310;12.786;2024-01-16T08:37:20;95650.84;;;0.39;64.17
50384;BME280;36301;48.310;12.786;2024-01-16T08:39:46;95639.47;;;0.69;61.12
50384;BME280;36301;48.310;12.786;2024-01-16T08:42:13;95661.91;;;1.09;61.24
50384;BME280;36301;48.310;12.786;2024-01-16T08:44:39;95656.97;;;1.54;59.81
50384;BME280;36301;48.310;12.786;2024-01-16T08:47:06;95651.06;;;0.81;62.43
50384;BME280;36301;48.310;12.786;2024-01-16T08:49:33;95658.28;;;0.92;61.28
50384;BME280;36301;48.310;12.786;2024-01-16T08:52:00;95654.03;;;0.53;62.19
50384;BME280;36301;48.310;12.786;2024-01-16T08:54:26;95651.88;;;0.72;62.41
50384;BME280;36301;48.310;12.786;2024-01-16T08:56:53;95655.56;;;0.54;62.82
50384;BME280;36301;48.310;12.786;2024-01-16T08:59:20;95651.41;;;0.79;61.19
50384;BME280;36301;48.310;12.786;2024-01-16T09:01:46;95647.44;;;0.64;62.91
50384;BME280;36301;48.310;12.786;2024-01-16T09:04:13;95653.28;;;0.44;62.89
50384;BME280;36301;48.310;12.786;2024-01-16T09:06:39;95651.31;;;0.06;64.00
50384;BME280;36301;48.310;12.786;2024-01-16T09:09:06;95656.19;;;-0.10;65.25
50384;BME280;36301;48.310;12.786;2024-01-16T09:11:33;95654.69;;;-0.59;66.92
50384;BME280;36301;48.310;12.786;2024-01-16T09:14:00;95658.09;;;-0.41;67.30
50384;BME280;36301;48.310;12.786;2024-01-16T09:16:30;95655.53;;;-0.24;66.37
50384;BME280;36301;48.310;12.786;2024-01-16T09:18:56;95653.75;;;0.29;64.99
50384;BME280;36301;48.310;12.786;2024-01-16T09:21:23;95654.34;;;0.34;63.16
50384;BME280;36301;48.310;12.786;2024-01-16T09:23:50;95648.53;;;0.29;62.78
50384;BME280;36301;48.310;12.786;2024-01-16T09:26:16;95645.91;;;0.55;62.81
50384;BME280;36301;48.310;12.786;2024-01-16T09:28:43;95648.94;;;1.29;60.25
50384;BME280;36301;48.310;12.786;2024-01-16T09:31:10;95650.22;;;1.53;58.94
50384;BME280;36301;48.310;12.786;2024-01-16T09:33:37;95656.66;;;1.55;58.92
50384;BME280;36301;48.310;12.786;2024-01-16T09:36:04;95656.66;;;1.85;58.07
50384;BME280;36301;48.310;12.786;2024-01-16T09:38:30;95655.53;;;2.16;57.56
50384;BME280;36301;48.310;12.786;2024-01-16T09:40:57;95647.06;;;2.19;57.99
50384;BME280;36301;48.310;12.786;2024-01-16T09:43:29;95648.50;;;2.07;57.46
50384;BME280;36301;48.310;12.786;2024-01-16T09:45:56;95642.88;;;1.76;58.46
50384;BME280;36301;48.310;12.786;2024-01-16T09:48:30;95644.69;;;2.47;56.99
50384;BME280;36301;48.310;12.786;2024-01-16T09:50:58;95648.53;;;2.62;56.94
50384;BME280;36301;48.310;12.786;2024-01-16T09:53:25;95645.31;;;1.51;57.19
50384;BME280;36301;48.310;12.786;2024-01-16T09:55:54;95648.28;;;0.94;60.58
50384;BME280;36301;48.310;12.786;2024-01-16T09:58:22;95643.81;;;1.42;60.04
50384;BME280;36301;48.310;12.786;2024-01-16T10:00:52;95647.28;;;1.84;58.47
50384;BME280;36301;48.310;12.786;2024-01-16T10:03:19;95639.41;;;2.34;57.82
50384;BME280;36301;48.310;12.786;2024-01-16T10:05:48;95631.63;;;2.26;56.69
50384;BME280;36301;48.310;12.786;2024-01-16T10:08:15;95628.28;;;2.04;57.56
50384;BME280;36301;48.310;12.786;2024-01-16T10:10:42;95634.25;;;2.92;55.39
50384;BME280;36301;48.310;12.786;2024-01-16T10:13:16;95627.28;;;2.51;54.31
50384;BME280;36301;48.310;12.786;2024-01-16T10:15:43;95621.84;;;2.56;55.45
50384;BME280;36301;48.310;12.786;2024-01-16T10:18:26;95625.38;;;2.72;55.01
50384;BME280;36301;48.310;12.786;2024-01-16T10:20:53;95622.22;;;2.67;55.86
50384;BME280;36301;48.310;12.786;2024-01-16T10:26:10;95626.13;;;2.60;55.04
50384;BME280;36301;48.310;12.786;2024-01-16T10:28:39;95619.66;;;2.58;54.51
50384;BME280;36301;48.310;12.786;2024-01-16T10:31:10;95632.38;;;2.80;55.04
50384;BME280;36301;48.310;12.786;2024-01-16T10:33:38;95627.41;;;3.00;54.62
50384;BME280;36301;48.310;12.786;2024-01-16T10:36:15;95619.13;;;2.85;55.12
50384;BME280;36301;48.310;12.786;2024-01-16T10:38:47;95624.81;;;2.67;53.68
50384;BME280;36301;48.310;12.786;2024-01-16T10:41:15;95619.59;;;2.67;54.61
50384;BME280;36301;48.310;12.786;2024-01-16T10:43:44;95612.00;;;2.74;53.44
50384;BME280;36301;48.310;12.786;2024-01-16T10:48:40;95614.44;;;2.91;54.45
50384;BME280;36301;48.310;12.786;2024-01-16T10:51:10;95612.53;;;2.34;54.74
50384;BME280;36301;48.310;12.786;2024-01-16T10:53:42;95608.47;;;2.57;54.09
50384;BME280;36301;48.310;12.786;2024-01-16T10:56:13;95609.19;;;2.46;55.54
50384;BME280;36301;48.310;12.786;2024-01-16T10:58:41;95609.16;;;2.67;55.12
50384;BME280;36301;48.310;12.786;2024-01-16T11:01:13;95599.94;;;2.94;54.60
50384;BME280;36301;48.310;12.786;2024-01-16T11:03:46;95601.16;;;3.08;54.48
50384;BME280;36301;48.310;12.786;2024-01-16T11:06:15;95610.97;;;3.11;55.16
50384;BME280;36301;48.310;12.786;2024-01-16T11:08:45;95567.81;;;2.93;54.68
50384;BME280;36301;48.310;12.786;2024-01-16T11:11:13;95592.66;;;3.11;54.47
50384;BME280;36301;48.310;12.786;2024-01-16T11:13:40;95593.09;;;3.01;55.93
50384;BME280;36301;48.310;12.786;2024-01-16T11:16:10;95582.88;;;3.21;54.62
50384;BME280;36301;48.310;12.786;2024-01-16T11:18:38;95583.94;;;3.56;53.55
50384;BME280;36301;48.310;12.786;2024-01-16T11:21:07;95582.88;;;3.21;54.21
50384;BME280;36301;48.310;12.786;2024-01-16T11:23:40;95580.13;;;3.17;53.71
50384;BME280;36301;48.310;12.786;2024-01-16T11:26:32;95577.53;;;3.17;55.85
50384;BME280;36301;48.310;12.786;2024-01-16T11:31:53;95570.75;;;3.04;54.95
50384;BME280;36301;48.310;12.786;2024-01-16T11:37:11;95547.88;;;3.25;53.82
50384;BME280;36301;48.310;12.786;2024-01-16T11:39:39;95554.31;;;3.16;54.65
50384;BME280;36301;48.310;12.786;2024-01-16T11:42:06;95541.44;;;3.47;54.80
50384;BME280;36301;48.310;12.786;2024-01-16T11:44:49;95538.19;;;3.26;54.50
50384;BME280;36301;48.310;12.786;2024-01-16T11:47:22;95549.41;;;3.26;54.40
50384;BME280;36301;48.310;12.786;2024-01-16T11:49:51;95545.50;;;3.20;53.82
50384;BME280;36301;48.310;12.786;2024-01-16T12:00:47;95534.13;;;3.04;54.02
50384;BME280;36301;48.310;12.786;2024-01-16T12:03:22;95523.59;;;3.00;55.07
50384;BME280;36301;48.310;12.786;2024-01-16T12:06:01;95522.81;;;3.00;54.51
50384;BME280;36301;48.310;12.786;2024-01-16T12:08:29;95517.69;;;3.16;53.48
50384;BME280;36301;48.310;12.786;2024-01-16T12:10:56;95521.19;;;2.95;54.80
50384;BME280;36301;48.310;12.786;2024-01-16T12:13:24;95507.66;;;3.30;53.14
50384;BME280;36301;48.310;12.786;2024-01-16T12:16:00;95502.00;;;3.03;53.51
50384;BME280;36301;48.310;12.786;2024-01-16T12:18:27;95507.00;;;2.72;54.31
50384;BME280;36301;48.310;12.786;2024-01-16T12:21:12;95503.53;;;2.92;54.94
50384;BME280;36301;48.310;12.786;2024-01-16T12:23:42;95500.47;;;3.02;53.73
50384;BME280;36301;48.310;12.786;2024-01-16T12:26:22;95503.63;;;3.08;53.73
50384;BME280;36301;48.310;12.786;2024-01-16T12:28:53;95493.81;;;3.17;55.03
50384;BME280;36301;48.310;12.786;2024-01-16T12:31:26;95497.72;;;3.23;54.19
50384;BME280;36301;48.310;12.786;2024-01-16T12:33:53;95497.81;;;3.39;53.51
50384;BME280;36301;48.310;12.786;2024-01-16T12:36:29;95495.19;;;3.39;53.71
50384;BME280;36301;48.310;12.786;2024-01-16T12:38:55;95481.63;;;3.09;53.81
50384;BME280;36301;48.310;12.786;2024-01-16T12:41:24;95489.13;;;3.35;54.03
50384;BME280;36301;48.310;12.786;2024-01-16T12:44:05;95485.88;;;3.26;54.14
50384;BME280;36301;48.310;12.786;2024-01-16T12:46:41;95483.91;;;3.35;54.10
50384;BME280;36301;48.310;12.786;2024-01-16T12:49:08;95485.00;;;3.22;54.60
50384;BME280;36301;48.310;12.786;2024-01-16T12:51:38;95477.25;;;3.13;54.24
50384;BME280;36301;48.310;12.786;2024-01-16T12:54:12;95479.78;;;3.09;53.93
50384;BME280;36301;48.310;12.786;2024-01-16T12:56:39;95477.47;;;3.20;53.87
50384;BME280;36301;48.310;12.786;2024-01-16T12:59:13;95478.31;;;3.24;53.62
50384;BME280;36301;48.310;12.786;2024-01-16T13:01:44;95470.69;;;3.31;54.95
50384;BME280;36301;48.310;12.786;2024-01-16T13:04:13;95465.47;;;3.31;53.34
50384;BME280;36301;48.310;12.786;2024-01-16T13:06:44;95457.91;;;3.42;53.15
50384;BME280;36301;48.310;12.786;2024-01-16T13:09:13;95450.53;;;3.32;52.34
50384;BME280;36301;48.310;12.786;2024-01-16T13:11:54;95451.59;;;3.43;52.85
50384;BME280;36301;48.310;12.786;2024-01-16T13:14:25;95453.44;;;3.43;52.21
50384;BME280;36301;48.310;12.786;2024-01-16T13:16:52;95445.94;;;3.29;53.25